createdAt,value
2018-07-12T00:02:15.031Z,6.03
2018-07-12T00:04:42.995Z,5.83
2018-07-12T00:07:10.652Z,6.10
2018-07-12T00:09:38.279Z,6.03
2018-07-12T00:12:06.490Z,7.17
2018-07-12T00:14:35.010Z,5.60
2018-07-12T00:17:02.658Z,6.03
2018-07-12T00:19:30.676Z,5.67
2018-07-12T00:21:58.303Z,5.10
2018-07-12T00:24:25.927Z,5.30
2018-07-12T00:26:53.571Z,6.37
2018-07-12T00:29:21.278Z,6.13
2018-07-12T00:31:48.913Z,5.53
2018-07-12T00:34:17.015Z,7.00
2018-07-12T00:36:44.675Z,5.20
2018-07-12T00:39:12.299Z,5.43
2018-07-12T00:41:39.945Z,5.87
2018-07-12T00:44:07.568Z,5.87
2018-07-12T00:46:35.208Z,5.23
2018-07-12T00:49:03.178Z,5.00
2018-07-12T00:51:30.874Z,6.30
2018-07-12T00:53:58.518Z,6.03
2018-07-12T00:56:26.638Z,5.60
2018-07-12T00:58:54.318Z,5.47
2018-07-12T01:01:21.945Z,5.07
2018-07-12T01:03:49.579Z,5.90
2018-07-12T01:06:17.270Z,5.83
2018-07-12T01:08:44.944Z,5.63
2018-07-12T01:11:12.658Z,4.87
2018-07-12T01:13:40.314Z,5.80
2018-07-12T01:16:07.932Z,6.00
2018-07-12T01:18:35.671Z,5.10
2018-07-12T01:21:03.340Z,4.90
2018-07-12T01:23:31.094Z,5.13
2018-07-12T01:25:58.719Z,6.07
2018-07-12T01:28:26.374Z,4.73
2018-07-12T01:30:53.991Z,5.27
2018-07-12T01:33:21.622Z,5.50
2018-07-12T01:35:49.363Z,5.20
2018-07-12T01:38:17.052Z,5.33
2018-07-12T01:40:44.739Z,5.43
2018-07-12T01:43:12.426Z,5.63
2018-07-12T01:45:40.083Z,6.03
2018-07-12T01:48:08.208Z,6.67
2018-07-12T01:50:35.919Z,7.00
2018-07-12T01:53:03.897Z,5.73
2018-07-12T01:55:32.164Z,5.50
2018-07-12T01:58:00.314Z,5.83
2018-07-12T02:00:27.953Z,5.60
2018-07-12T02:02:55.933Z,7.00
2018-07-12T02:05:23.597Z,7.10
2018-07-12T02:07:51.330Z,5.80
2018-07-12T02:10:19.343Z,5.70
2018-07-12T02:12:46.977Z,5.33
2018-07-12T02:15:14.627Z,5.70
2018-07-12T02:17:42.253Z,6.73
2018-07-12T02:20:10.204Z,6.20
2018-07-12T02:22:37.858Z,6.13
2018-07-12T02:25:05.577Z,4.93
2018-07-12T02:27:33.238Z,6.80
2018-07-12T02:30:00.852Z,5.80
2018-07-12T02:32:29.461Z,6.00
2018-07-12T02:34:57.272Z,5.97
2018-07-12T02:37:24.954Z,5.27
2018-07-12T02:39:52.591Z,6.47
2018-07-12T02:42:20.531Z,5.80
2018-07-12T02:44:48.180Z,6.50
2018-07-12T02:47:16.079Z,5.87
2018-07-12T02:49:43.984Z,6.37
2018-07-12T02:52:12.658Z,7.10
2018-07-12T02:54:40.469Z,6.20
2018-07-12T02:57:08.170Z,6.70
2018-07-12T02:59:36.103Z,6.43
2018-07-12T03:02:03.929Z,5.83
2018-07-12T03:04:32.681Z,6.53
2018-07-12T03:07:00.307Z,7.20
2018-07-12T03:09:27.931Z,5.90
2018-07-12T03:11:55.879Z,6.10
2018-07-12T03:14:24.135Z,6.43
2018-07-12T03:16:51.760Z,6.53
2018-07-12T03:19:19.394Z,7.00
2018-07-12T03:21:47.035Z,5.70
2018-07-12T03:24:14.670Z,6.90
2018-07-12T03:26:42.302Z,6.67
2018-07-12T03:29:09.975Z,6.40
2018-07-12T03:31:37.968Z,7.20
2018-07-12T03:34:06.059Z,6.03
2018-07-12T03:36:33.727Z,5.93
2018-07-12T03:39:01.363Z,5.60
2018-07-12T03:41:28.992Z,6.80
2018-07-12T03:43:56.706Z,7.23
2018-07-12T03:46:24.343Z,6.20
2018-07-12T03:48:51.982Z,7.17
2018-07-12T03:51:19.895Z,6.73
2018-07-12T03:53:47.611Z,7.27
2018-07-12T03:56:15.238Z,5.80
2018-07-12T03:58:43.439Z,5.60
2018-07-12T04:01:11.219Z,6.70
2018-07-12T04:03:39.716Z,6.27
2018-07-12T04:06:08.271Z,6.63
2018-07-12T04:08:35.943Z,7.30
2018-07-12T04:11:03.604Z,6.50
2018-07-12T04:13:31.243Z,5.83
2018-07-12T04:15:58.874Z,5.70
2018-07-12T04:18:26.766Z,6.73
2018-07-12T04:20:54.731Z,6.00
2018-07-12T04:23:22.363Z,6.07
2018-07-12T04:25:49.997Z,6.40
2018-07-12T04:28:17.814Z,6.70
2018-07-12T04:30:45.676Z,6.43
2018-07-12T04:33:13.995Z,6.00
2018-07-12T04:35:41.935Z,7.83
2018-07-12T04:38:09.570Z,8.57
2018-07-12T04:40:37.570Z,6.73
2018-07-12T04:43:05.266Z,6.60
2018-07-12T04:45:32.923Z,6.63
2018-07-12T04:48:00.634Z,6.77
2018-07-12T04:50:28.522Z,5.40
2018-07-12T04:52:56.544Z,6.50
2018-07-12T04:55:24.786Z,6.73
2018-07-12T04:57:52.448Z,5.57
2018-07-12T05:00:20.590Z,5.77
2018-07-12T05:02:48.659Z,5.70
2018-07-12T05:05:16.277Z,6.47
2018-07-12T05:07:44.583Z,5.20
2018-07-12T05:10:12.695Z,5.20
2018-07-12T05:12:42.215Z,4.67
2018-07-12T05:15:10.175Z,5.20
2018-07-12T05:17:37.792Z,5.37
2018-07-12T05:20:05.454Z,5.63
2018-07-12T05:22:33.374Z,6.20
2018-07-12T05:25:01.015Z,6.20
2018-07-12T05:27:28.721Z,6.60
2018-07-12T05:29:56.633Z,5.73
2018-07-12T05:32:24.995Z,5.87
2018-07-12T05:34:52.705Z,6.00
2018-07-12T05:37:22.439Z,5.77
2018-07-12T05:39:52.435Z,6.90
2018-07-12T05:42:22.318Z,6.00
2018-07-12T05:44:52.191Z,7.13
2018-07-12T05:47:21.564Z,5.37
2018-07-12T05:49:50.931Z,6.10
2018-07-12T05:52:20.793Z,6.53
2018-07-12T05:54:50.035Z,5.73
2018-07-12T05:57:19.336Z,7.03
2018-07-12T05:59:49.011Z,5.90
2018-07-12T06:02:21.546Z,5.27
2018-07-12T06:04:51.637Z,6.30
2018-07-12T06:07:26.242Z,6.57
2018-07-12T06:09:56.195Z,5.33
2018-07-12T06:12:26.626Z,6.20
2018-07-12T06:14:55.903Z,6.30
2018-07-12T06:17:25.238Z,6.30
2018-07-12T06:19:55.091Z,5.63
2018-07-12T06:22:24.691Z,5.80
2018-07-12T06:24:54.262Z,6.43
2018-07-12T06:27:23.609Z,6.37
2018-07-12T06:29:53.422Z,6.53
2018-07-12T06:32:22.906Z,6.87
2018-07-12T06:34:52.039Z,5.57
2018-07-12T06:37:21.144Z,6.43
2018-07-12T06:39:50.243Z,5.27
2018-07-12T06:42:19.386Z,6.60
2018-07-12T06:44:48.903Z,6.10
2018-07-12T06:47:18.446Z,6.43
2018-07-12T06:49:47.346Z,5.70
2018-07-12T06:52:16.948Z,5.80
2018-07-12T06:54:46.143Z,6.03
2018-07-12T06:57:16.773Z,6.20
2018-07-12T06:59:45.866Z,7.37
2018-07-12T07:02:14.981Z,6.97
2018-07-12T07:04:44.133Z,6.07
2018-07-12T07:07:13.781Z,6.50
2018-07-12T07:09:42.922Z,6.27
2018-07-12T07:12:12.011Z,6.03
2018-07-12T07:14:41.145Z,6.67
2018-07-12T07:17:10.369Z,6.60
2018-07-12T07:19:39.674Z,6.60
2018-07-12T07:22:08.952Z,7.07
2018-07-12T07:24:38.498Z,6.70
2018-07-12T07:27:07.594Z,7.47
2018-07-12T07:29:36.746Z,7.50
2018-07-12T07:32:05.876Z,8.30
2018-07-12T07:34:35.015Z,9.83
2018-07-12T07:37:04.162Z,10.60
2018-07-12T07:39:33.254Z,12.80
2018-07-12T07:42:02.436Z,12.67
2018-07-12T07:44:32.346Z,14.77
2018-07-12T07:47:01.774Z,13.67
2018-07-12T07:49:31.138Z,14.67
2018-07-12T07:52:00.418Z,12.87
2018-07-12T07:54:29.703Z,12.87
2018-07-12T07:56:58.913Z,12.50
2018-07-12T07:59:28.310Z,12.20
2018-07-12T08:01:57.662Z,12.90
2018-07-12T08:04:27.959Z,12.80
2018-07-12T08:06:57.270Z,13.20
2018-07-12T08:09:26.541Z,12.73
2018-07-12T08:11:55.779Z,11.90
2018-07-12T08:14:25.091Z,13.53
2018-07-12T08:16:53.851Z,13.97
2018-07-12T08:19:22.986Z,15.53
2018-07-12T08:22:03.350Z,13.63
2018-07-12T08:24:32.483Z,14.60
2018-07-12T08:27:01.620Z,12.40
2018-07-12T08:29:31.085Z,13.60
2018-07-12T08:32:01.166Z,12.87
2018-07-12T08:34:30.339Z,14.70
2018-07-12T08:36:59.538Z,15.23
2018-07-12T08:39:28.590Z,15.50
2018-07-12T08:41:57.758Z,16.67
2018-07-12T08:44:26.872Z,14.77
2018-07-12T08:46:55.959Z,14.20
2018-07-12T08:49:25.902Z,12.93
2018-07-12T08:51:55.026Z,12.77
2018-07-12T08:54:24.145Z,14.67
2018-07-12T08:56:53.341Z,14.67
2018-07-12T08:59:22.483Z,12.83
2018-07-12T09:01:51.597Z,13.73
2018-07-12T09:04:21.395Z,12.53
2018-07-12T09:06:51.323Z,11.33
2018-07-12T09:09:20.562Z,11.57
2018-07-12T09:11:49.820Z,10.47
2018-07-12T09:14:19.438Z,9.63
2018-07-12T09:16:49.215Z,9.40
2018-07-12T09:19:19.283Z,8.10
2018-07-12T09:21:49.224Z,8.67
2018-07-12T09:24:19.131Z,9.73
2018-07-12T09:26:48.999Z,9.40
2018-07-12T09:29:18.399Z,8.60
2018-07-12T09:31:47.998Z,10.00
2018-07-12T09:34:18.078Z,9.87
2018-07-12T09:36:47.875Z,8.47
2018-07-12T09:39:17.810Z,9.07
2018-07-12T09:41:47.135Z,9.30
2018-07-12T09:44:16.622Z,7.77
2018-07-12T09:46:45.898Z,9.63
2018-07-12T09:49:15.346Z,10.20
2018-07-12T09:51:44.311Z,7.93
2018-07-12T09:54:13.411Z,9.00
2018-07-12T09:56:59.366Z,8.47
2018-07-12T09:59:28.799Z,8.23
2018-07-12T10:02:02.838Z,9.27
2018-07-12T10:04:32.458Z,8.37
2018-07-12T10:07:07.567Z,7.90
2018-07-12T10:09:41.877Z,7.97
2018-07-12T10:12:16.299Z,8.23
2018-07-12T10:14:51.594Z,9.13
2018-07-12T10:17:25.888Z,7.90
2018-07-12T10:19:55.029Z,8.47
2018-07-12T10:22:24.748Z,8.87
2018-07-12T10:24:53.890Z,8.20
2018-07-12T10:27:23.151Z,7.80
2018-07-12T10:29:52.890Z,8.83
2018-07-12T10:32:22.106Z,6.90
2018-07-12T10:34:51.508Z,7.57
2018-07-12T10:37:21.019Z,6.00
2018-07-12T10:39:50.947Z,6.57
2018-07-12T10:42:20.450Z,7.60
2018-07-12T10:44:50.402Z,7.67
2018-07-12T10:47:19.699Z,8.23
2018-07-12T10:49:49.068Z,7.27
2018-07-12T10:52:18.346Z,5.63
2018-07-12T10:54:48.018Z,6.60
2018-07-12T10:57:17.139Z,7.77
2018-07-12T10:59:46.246Z,7.20
2018-07-12T11:02:15.383Z,6.03
2018-07-12T11:04:46.398Z,6.23
2018-07-12T11:07:15.647Z,7.17
2018-07-12T11:09:44.955Z,6.70
2018-07-12T11:12:14.430Z,5.43
2018-07-12T11:14:43.666Z,5.90
2018-07-12T11:17:12.755Z,5.83
2018-07-12T11:19:41.882Z,6.83
2018-07-12T11:22:10.964Z,6.60
2018-07-12T11:24:41.067Z,6.40
2018-07-12T11:27:10.195Z,6.23
2018-07-12T11:29:54.974Z,7.17
2018-07-12T11:32:24.100Z,5.83
2018-07-12T11:34:53.283Z,6.63
2018-07-12T11:37:25.978Z,6.90
2018-07-12T11:39:55.143Z,6.07
2018-07-12T11:42:24.018Z,5.23
2018-07-12T11:44:53.135Z,7.70
2018-07-12T11:47:22.312Z,6.83
2018-07-12T11:49:51.397Z,7.30
2018-07-12T11:52:20.515Z,7.03
2018-07-12T11:54:49.617Z,6.90
2018-07-12T11:57:18.728Z,6.80
2018-07-12T11:59:47.847Z,7.50
2018-07-12T12:02:16.926Z,6.97
2018-07-12T12:04:46.014Z,6.77
2018-07-12T12:07:15.127Z,9.30
2018-07-12T12:09:45.051Z,8.27
2018-07-12T12:12:14.240Z,7.60
2018-07-12T12:14:43.450Z,7.10
2018-07-12T12:17:12.776Z,6.90
2018-07-12T12:19:42.190Z,8.40
2018-07-12T12:22:12.486Z,7.73
2018-07-12T12:24:42.170Z,6.07
2018-07-12T12:27:11.863Z,7.00
2018-07-12T12:29:41.090Z,8.33
2018-07-12T12:32:10.874Z,7.20
2018-07-12T12:34:39.787Z,6.27
2018-07-12T12:37:09.123Z,7.60
2018-07-12T12:39:38.258Z,7.50
2018-07-12T12:42:07.350Z,6.30
2018-07-12T12:44:37.263Z,6.37
2018-07-12T12:47:07.278Z,5.87
2018-07-12T12:49:36.643Z,5.70
2018-07-12T12:52:05.990Z,5.53
2018-07-12T12:54:35.275Z,6.70
2018-07-12T12:57:05.468Z,6.63
2018-07-12T12:59:35.243Z,5.93
2018-07-12T13:02:05.108Z,7.13
2018-07-12T13:04:34.429Z,7.17
2018-07-12T13:07:04.347Z,6.43
2018-07-12T13:09:33.571Z,7.47
2018-07-12T13:12:03.460Z,7.20
2018-07-12T13:14:33.246Z,6.73
2018-07-12T13:17:02.583Z,7.20
2018-07-12T13:19:32.236Z,7.30
2018-07-12T13:22:02.615Z,6.70
2018-07-12T13:24:31.867Z,5.83
2018-07-12T13:27:01.077Z,5.90
2018-07-12T13:29:30.274Z,5.77
2018-07-12T13:32:00.192Z,7.77
2018-07-12T13:34:30.083Z,5.43
2018-07-12T13:37:00.506Z,8.93
2018-07-12T13:39:29.634Z,8.10
2018-07-12T13:41:58.915Z,7.47
2018-07-12T13:44:28.070Z,8.90
2018-07-12T13:46:57.165Z,7.47
2018-07-12T13:49:26.258Z,6.33
2018-07-12T13:51:55.379Z,7.73
2018-07-12T13:54:24.487Z,8.37
2018-07-12T13:56:53.768Z,7.23
2018-07-12T13:59:22.909Z,7.40
2018-07-12T14:01:52.071Z,7.83
2018-07-12T14:04:21.183Z,7.97
2018-07-12T14:06:50.382Z,7.90
2018-07-12T14:09:19.529Z,7.03
2018-07-12T14:11:48.673Z,8.47
2018-07-12T14:14:18.184Z,8.30
2018-07-12T14:16:48.139Z,7.47
2018-07-12T14:19:18.062Z,6.97
2018-07-12T14:21:48.019Z,8.73
2018-07-12T14:24:17.999Z,7.10
2018-07-12T14:26:47.351Z,6.90
2018-07-12T14:29:16.998Z,7.40
2018-07-12T14:31:46.909Z,6.87
2018-07-12T14:34:16.785Z,7.27
2018-07-12T14:36:46.010Z,6.40
2018-07-12T14:39:15.230Z,7.00
2018-07-12T14:41:44.578Z,7.47
2018-07-12T14:44:14.036Z,7.20
2018-07-12T14:46:43.827Z,6.57
2018-07-12T14:49:13.803Z,5.30
2018-07-12T14:51:43.816Z,4.97
2018-07-12T14:54:13.658Z,4.97
2018-07-12T14:56:43.623Z,5.60
2018-07-12T14:59:13.395Z,4.13
2018-07-12T15:01:42.486Z,3.93
2018-07-12T15:04:11.803Z,4.40
2018-07-12T15:06:40.974Z,4.00
2018-07-12T15:09:10.634Z,4.60
2018-07-12T15:11:39.574Z,4.60
2018-07-12T15:14:08.986Z,4.67
2018-07-12T15:16:38.135Z,4.67
2018-07-12T15:19:07.258Z,4.33
2018-07-12T15:21:36.739Z,4.97
2018-07-12T15:24:06.535Z,4.60
2018-07-12T15:26:35.986Z,4.83
2018-07-12T15:29:05.419Z,5.30
2018-07-12T15:31:35.077Z,5.03
2018-07-12T15:34:04.934Z,5.80
2018-07-12T15:36:34.250Z,5.67
2018-07-12T15:39:06.319Z,5.20
2018-07-12T15:41:35.414Z,4.87
2018-07-12T15:44:04.546Z,5.37
2018-07-12T15:46:33.943Z,4.57
2018-07-12T15:49:03.426Z,4.93
2018-07-12T15:51:37.820Z,4.60
2018-07-12T15:54:06.906Z,4.87
2018-07-12T15:56:36.033Z,5.30
2018-07-12T15:59:05.202Z,4.97
2018-07-12T16:01:34.335Z,5.60
2018-07-12T16:04:03.454Z,4.90
2018-07-12T16:06:32.947Z,5.03
2018-07-12T16:09:02.506Z,6.17
2018-07-12T16:11:31.795Z,5.53
2018-07-12T16:14:00.922Z,5.60
2018-07-12T16:16:30.000Z,4.80
2018-07-12T16:19:00.035Z,5.30
2018-07-12T16:21:29.151Z,4.60
2018-07-12T16:23:58.243Z,5.10
2018-07-12T16:26:27.367Z,4.63
2018-07-12T16:28:56.463Z,4.10
2018-07-12T16:31:26.323Z,5.33
2018-07-12T16:33:55.433Z,4.13
2018-07-12T16:36:24.522Z,4.20
2018-07-12T16:38:54.650Z,4.33
2018-07-12T16:41:24.074Z,4.33
2018-07-12T16:43:53.484Z,3.50
2018-07-12T16:46:22.701Z,4.30
2018-07-12T16:48:52.506Z,3.80
2018-07-12T16:51:21.750Z,3.77
2018-07-12T16:53:51.254Z,3.70
2018-07-12T16:56:20.491Z,3.10
2018-07-12T16:58:49.863Z,3.83
2018-07-12T17:01:19.010Z,3.80
2018-07-12T17:03:48.106Z,3.47
2018-07-12T17:06:17.955Z,4.30
2018-07-12T17:08:47.591Z,4.50
2018-07-12T17:11:16.694Z,4.10
2018-07-12T17:13:45.836Z,3.63
2018-07-12T17:16:14.962Z,3.77
2018-07-12T17:18:44.287Z,3.50
2018-07-12T17:21:14.530Z,3.60
2018-07-12T17:23:44.200Z,3.43
2018-07-12T17:26:13.813Z,3.80
2018-07-12T17:28:43.869Z,3.50
2018-07-12T17:31:14.129Z,3.60
2018-07-12T17:33:44.829Z,3.57
2018-07-12T17:36:13.906Z,3.27
2018-07-12T17:38:42.993Z,3.53
2018-07-12T17:41:12.193Z,3.93
2018-07-12T17:43:41.282Z,4.30
2018-07-12T17:46:11.073Z,3.63
2018-07-12T17:48:40.167Z,4.67
2018-07-12T17:51:12.155Z,4.20
2018-07-12T17:53:42.000Z,4.20
2018-07-12T17:56:11.932Z,3.10
2018-07-12T17:58:41.491Z,3.93
2018-07-12T18:01:10.930Z,3.50
2018-07-12T18:03:40.274Z,4.00
2018-07-12T18:06:09.990Z,3.23
2018-07-12T18:08:39.786Z,3.63
2018-07-12T18:11:09.099Z,3.83
2018-07-12T18:13:37.935Z,3.20
2018-07-12T18:16:07.138Z,3.50
2018-07-12T18:18:36.252Z,3.23
2018-07-12T18:21:06.482Z,3.13
2018-07-12T18:23:35.554Z,3.60
2018-07-12T18:26:06.499Z,3.50
2018-07-12T18:28:35.609Z,3.93
2018-07-12T18:31:05.187Z,3.70
2018-07-12T18:33:34.302Z,3.90
2018-07-12T18:36:04.811Z,3.77
2018-07-12T18:38:33.910Z,3.63
2018-07-12T18:41:03.393Z,4.17
2018-07-12T18:43:33.312Z,3.43
2018-07-12T18:46:03.198Z,3.30
2018-07-12T18:48:33.159Z,3.70
2018-07-12T18:51:02.427Z,3.70
2018-07-12T18:53:32.471Z,4.10
2018-07-12T18:56:02.048Z,3.70
2018-07-12T18:58:31.631Z,3.70
2018-07-12T19:01:01.107Z,4.30
2018-07-12T19:03:30.283Z,4.07
2018-07-12T19:06:00.039Z,4.80
2018-07-12T19:08:30.146Z,4.20
2018-07-12T19:10:59.923Z,4.40
2018-07-12T19:13:29.815Z,4.37
2018-07-12T19:15:59.747Z,4.83
2018-07-12T19:18:29.179Z,4.60
2018-07-12T19:20:58.943Z,4.70
2018-07-12T19:23:29.774Z,4.03
2018-07-12T19:25:59.257Z,5.63
2018-07-12T19:28:28.338Z,5.60
2018-07-12T19:30:58.542Z,5.00
2018-07-12T19:33:27.686Z,4.90
2018-07-12T19:35:56.747Z,5.30
2018-07-12T19:38:26.040Z,5.50
2018-07-12T19:40:55.911Z,4.40
2018-07-12T19:43:26.490Z,4.77
2018-07-12T19:45:56.926Z,5.10
2018-07-12T19:48:26.307Z,5.00
2018-07-12T19:50:55.564Z,5.20
2018-07-12T19:53:24.797Z,7.23
2018-07-12T19:55:55.250Z,7.23
2018-07-12T19:58:25.011Z,10.90
2018-07-12T20:00:54.298Z,7.50
2018-07-12T20:03:23.713Z,5.33
2018-07-12T20:05:53.394Z,4.50
2018-07-12T20:08:22.878Z,5.17
2018-07-12T20:10:51.970Z,5.07
2018-07-12T20:13:21.060Z,4.57
2018-07-12T20:15:50.740Z,5.77
2018-07-12T20:18:19.941Z,6.47
2018-07-12T20:20:49.064Z,6.83
2018-07-12T20:23:18.465Z,5.73
2018-07-12T20:25:48.539Z,5.30
2018-07-12T20:28:18.479Z,5.30
2018-07-12T20:30:48.590Z,7.27
2018-07-12T20:33:18.307Z,5.70
2018-07-12T20:35:48.782Z,5.07
2018-07-12T20:38:18.583Z,5.10
2018-07-12T20:40:47.705Z,5.40
2018-07-12T20:43:20.854Z,4.90
2018-07-12T20:45:50.379Z,5.10
2018-07-12T20:48:19.698Z,5.20
2018-07-12T20:50:49.362Z,4.93
2018-07-12T20:53:19.318Z,5.40
2018-07-12T20:55:50.326Z,5.00
2018-07-12T20:58:19.406Z,5.23
2018-07-12T21:00:50.276Z,6.80
2018-07-12T21:03:19.394Z,6.10
2018-07-12T21:05:50.243Z,5.90
2018-07-12T21:08:19.539Z,6.50
2018-07-12T21:10:49.386Z,6.00
2018-07-12T21:13:19.322Z,6.33
2018-07-12T21:15:48.420Z,6.03
2018-07-12T21:18:17.546Z,6.00
2018-07-12T21:20:46.786Z,8.90
2018-07-12T21:23:16.590Z,7.63
2018-07-12T21:25:46.154Z,7.70
2018-07-12T21:28:15.648Z,6.73
2018-07-12T21:30:44.887Z,6.13
2018-07-12T21:33:14.595Z,6.83
2018-07-12T21:35:44.602Z,7.40
2018-07-12T21:38:14.435Z,7.60
2018-07-12T21:40:45.679Z,6.50
2018-07-12T21:43:15.110Z,6.90
2018-07-12T21:45:45.074Z,7.70
2018-07-12T21:48:14.487Z,7.00
2018-07-12T21:50:44.015Z,7.17
2018-07-12T21:53:13.494Z,7.83
2018-07-12T21:55:42.596Z,7.03
2018-07-12T21:58:11.742Z,7.80
2018-07-12T22:00:40.812Z,7.77
2018-07-12T22:03:09.963Z,8.00
2018-07-12T22:05:39.119Z,8.40
2018-07-12T22:08:14.568Z,7.10
2018-07-12T22:10:44.791Z,6.97
2018-07-12T22:13:14.483Z,8.63
2018-07-12T22:15:43.618Z,7.70
2018-07-12T22:18:12.775Z,7.60
2018-07-12T22:20:41.866Z,6.90
2018-07-12T22:23:11.251Z,6.87
2018-07-12T22:25:41.235Z,6.70
2018-07-12T22:28:10.522Z,7.03
2018-07-12T22:30:39.965Z,6.93
2018-07-12T22:33:09.306Z,8.20
2018-07-12T22:35:39.143Z,6.90
2018-07-12T22:38:08.482Z,7.87
2018-07-12T22:40:37.582Z,7.60
2018-07-12T22:43:06.675Z,8.13
2018-07-12T22:45:36.323Z,6.70
2018-07-12T22:48:05.499Z,8.10
2018-07-12T22:50:35.047Z,6.93
2018-07-12T22:53:04.134Z,8.23
2018-07-12T22:55:33.553Z,8.57
2018-07-12T22:58:02.647Z,8.57
2018-07-12T23:00:31.798Z,9.20
2018-07-12T23:03:00.898Z,9.17
2018-07-12T23:05:30.008Z,8.87
2018-07-12T23:07:59.189Z,8.30
2018-07-12T23:10:29.050Z,8.37
2018-07-12T23:12:59.031Z,9.53
2018-07-12T23:15:28.870Z,8.47
2018-07-12T23:17:58.186Z,7.87
2018-07-12T23:20:26.987Z,8.97
2018-07-12T23:22:56.123Z,9.00
2018-07-12T23:25:25.395Z,10.20
2018-07-12T23:27:54.619Z,10.10
2018-07-12T23:30:24.140Z,9.50
2018-07-12T23:32:53.258Z,10.07
2018-07-12T23:35:22.371Z,10.20
2018-07-12T23:37:51.842Z,10.00
2018-07-12T23:40:20.987Z,9.27
2018-07-12T23:42:50.167Z,8.83
2018-07-12T23:45:19.325Z,10.57
2018-07-12T23:47:48.410Z,8.50
2018-07-12T23:50:17.731Z,9.63
2018-07-12T23:52:46.854Z,9.30
2018-07-12T23:55:15.975Z,8.40
2018-07-12T23:57:45.115Z,10.70
